Airfield :
LOGIN :

Register | Disclaimer

   EN    FR    IT 

 










Legend :    VFR   Marginal VFR   IFR   Intensive IFR   Very Intensive IFR
Visi :
Ceiling :
>= 8 km
>= 3000ft
5 to 8 km
1000 to 3000 ft
1500m to 5 km
500 to 1000 ft
800 to 1500m
200 to 500 ft
< 800m
< 200 ft
Symbols :   Thunderstorms  Fog  Heavy snow  Heavy precipitations  Wind > 20 kt
SIGMETs :     Misc.  Thunderstorms  Icing  Turbulence  Mountain Waves  Volcanic Ashes






- Airport Elevation : 138 ft
- IATA code : BIO


LEBB - Bilbao

CURRENT METAR :
  • 281900Z 09007KT 060V140 CAVOK 28/15 Q1018 NOSIG

EXPIRED METARs :
  • 281830Z 09007KT 060V130 CAVOK 29/15 Q1018 NOSIG
  • 281800Z 08010KT CAVOK 30/14 Q1018 NOSIG
  • 281730Z 08012KT 050V130 CAVOK 30/15 Q1018 NOSIG
  • 281700Z 08011KT 050V120 CAVOK 31/15 Q1018 NOSIG

TAF TAF LEBB
Valid from the 28 at 18:00 until the 29 at 18:00 UTC


281700Z 2818/2918 VRB05KT CAVOK TX30/2913Z TN15/2905Z
TEMPO 2818/2820 08010KT
TEMPO 2912/2918 07010KT



MET'MAP, your aeronautical weather chart ! - Copyright ORBIFLY December 2007 - Disclaimer

ORBIFLY MET'MAP TEAM :

Programming & Development : Alexandra Zaïnal
Concept & original design : Baudouin d'Aumeries
Assistance for programming : Marc-Olivier Méhu
Technical & hardware support : Manuel Goepfert

Contact : metmap@orbifly.com




SOURCES & CREDITS :

   NOAA